createdAt,value
2017-10-12T00:01:56.540Z,6.43
2017-10-12T00:03:58.978Z,6.77
2017-10-12T00:06:01.476Z,6.33
2017-10-12T00:08:03.914Z,5.50
2017-10-12T00:10:06.354Z,9.33
2017-10-12T00:12:08.825Z,5.40
2017-10-12T00:14:11.251Z,7.50
2017-10-12T00:16:13.700Z,5.67
2017-10-12T00:18:16.173Z,5.73
2017-10-12T00:20:18.608Z,6.23
2017-10-12T00:22:21.037Z,5.00
2017-10-12T00:24:23.511Z,5.97
2017-10-12T00:26:26.063Z,5.57
2017-10-12T00:28:28.615Z,7.27
2017-10-12T00:30:31.093Z,6.30
2017-10-12T00:32:33.531Z,6.30
2017-10-12T00:34:35.971Z,5.33
2017-10-12T00:36:38.439Z,7.20
2017-10-12T00:38:41.000Z,5.60
2017-10-12T00:40:43.448Z,5.23
2017-10-12T00:42:45.955Z,5.97
2017-10-12T00:44:48.387Z,5.80
2017-10-12T00:46:50.902Z,6.43
2017-10-12T00:48:53.351Z,4.50
2017-10-12T00:50:55.804Z,6.10
2017-10-12T00:52:58.254Z,6.57
2017-10-12T00:55:00.768Z,5.23
2017-10-12T00:57:03.210Z,5.70
2017-10-12T00:59:05.648Z,6.87
2017-10-12T01:01:08.118Z,5.57
2017-10-12T01:03:10.572Z,5.60
2017-10-12T01:05:13.008Z,6.10
2017-10-12T01:07:15.581Z,6.93
2017-10-12T01:09:18.021Z,6.30
2017-10-12T01:11:20.458Z,6.10
2017-10-12T01:13:22.912Z,4.90
2017-10-12T01:15:25.365Z,5.90
2017-10-12T01:17:27.815Z,6.03
2017-10-12T01:19:30.300Z,5.43
2017-10-12T01:21:32.733Z,5.57
2017-10-12T01:23:35.249Z,5.50
2017-10-12T01:25:37.713Z,6.67
2017-10-12T01:27:40.301Z,5.60
2017-10-12T01:29:42.740Z,5.77
2017-10-12T01:31:45.238Z,6.50
2017-10-12T01:33:47.707Z,6.57
2017-10-12T01:35:50.165Z,6.43
2017-10-12T01:37:52.648Z,4.77
2017-10-12T01:39:55.119Z,6.97
2017-10-12T01:41:57.569Z,6.13
2017-10-12T01:44:00.028Z,5.70
2017-10-12T01:46:02.473Z,7.10
2017-10-12T01:48:04.999Z,5.30
2017-10-12T01:50:07.474Z,5.27
2017-10-12T01:52:09.910Z,6.60
2017-10-12T01:54:12.354Z,5.23
2017-10-12T01:56:14.817Z,5.40
2017-10-12T01:58:17.347Z,6.13
2017-10-12T02:00:19.819Z,4.97
2017-10-12T02:02:22.295Z,5.13
2017-10-12T02:04:24.727Z,5.00
2017-10-12T02:06:27.175Z,6.07
2017-10-12T02:08:29.703Z,5.93
2017-10-12T02:10:32.162Z,4.60
2017-10-12T02:12:34.592Z,4.73
2017-10-12T02:14:37.047Z,5.10
2017-10-12T02:16:39.568Z,4.60
2017-10-12T02:18:42.042Z,7.10
2017-10-12T02:20:44.502Z,6.67
2017-10-12T02:22:46.940Z,5.00
2017-10-12T02:24:50.343Z,5.80
2017-10-12T02:26:52.802Z,5.70
2017-10-12T02:28:55.279Z,5.83
2017-10-12T02:30:57.727Z,4.73
2017-10-12T02:33:00.197Z,4.80
2017-10-12T02:35:02.729Z,5.23
2017-10-12T02:37:05.187Z,5.43
2017-10-12T02:39:07.654Z,4.53
2017-10-12T02:41:10.103Z,4.43
2017-10-12T02:43:12.535Z,5.87
2017-10-12T02:45:15.017Z,4.97
2017-10-12T02:47:17.555Z,4.80
2017-10-12T02:49:20.001Z,4.60
2017-10-12T02:51:22.460Z,4.03
2017-10-12T02:53:24.903Z,5.13
2017-10-12T02:55:27.342Z,5.73
2017-10-12T02:57:29.905Z,5.30
2017-10-12T02:59:32.341Z,4.77
2017-10-12T03:01:34.833Z,5.00
2017-10-12T03:03:37.283Z,4.70
2017-10-12T03:05:39.717Z,4.97
2017-10-12T03:07:42.245Z,5.57
2017-10-12T03:09:44.699Z,6.90
2017-10-12T03:11:47.138Z,4.53
2017-10-12T03:13:49.641Z,4.53
2017-10-12T03:15:52.129Z,4.90
2017-10-12T03:17:54.600Z,5.20
2017-10-12T03:19:57.043Z,5.10
2017-10-12T03:21:59.512Z,6.10
2017-10-12T03:24:01.956Z,6.00
2017-10-12T03:26:04.403Z,5.40
2017-10-12T03:28:06.867Z,5.37
2017-10-12T03:30:09.545Z,5.30
2017-10-12T03:32:12.916Z,5.57
2017-10-12T03:34:15.406Z,5.03
2017-10-12T03:36:17.844Z,4.60
2017-10-12T03:38:20.287Z,3.90
2017-10-12T03:40:22.760Z,4.63
2017-10-12T03:42:25.208Z,4.47
2017-10-12T03:44:27.636Z,4.77
2017-10-12T03:46:30.174Z,5.30
2017-10-12T03:48:32.620Z,4.77
2017-10-12T03:50:35.056Z,4.90
2017-10-12T03:52:37.521Z,4.90
2017-10-12T03:54:39.982Z,4.27
2017-10-12T03:56:42.426Z,4.40
2017-10-12T03:58:44.919Z,5.30
2017-10-12T04:00:47.399Z,4.13
2017-10-12T04:02:49.843Z,4.47
2017-10-12T04:04:52.297Z,4.80
2017-10-12T04:06:54.728Z,4.63
2017-10-12T04:08:57.176Z,6.07
2017-10-12T04:10:59.710Z,4.93
2017-10-12T04:13:02.141Z,5.00
2017-10-12T04:15:04.578Z,4.57
2017-10-12T04:17:07.056Z,4.40
2017-10-12T04:19:09.493Z,4.50
2017-10-12T04:21:11.989Z,4.70
2017-10-12T04:23:14.452Z,4.47
2017-10-12T04:25:16.919Z,4.40
2017-10-12T04:27:19.404Z,4.10
2017-10-12T04:29:21.867Z,6.20
2017-10-12T04:31:24.458Z,4.47
2017-10-12T04:33:26.918Z,5.00
2017-10-12T04:35:29.379Z,5.10
2017-10-12T04:37:31.826Z,5.00
2017-10-12T04:39:34.270Z,4.73
2017-10-12T04:41:36.805Z,4.90
2017-10-12T04:43:40.441Z,4.57
2017-10-12T04:45:42.912Z,3.90
2017-10-12T04:47:45.381Z,4.60
2017-10-12T04:49:47.908Z,5.10
2017-10-12T04:51:50.343Z,4.20
2017-10-12T04:53:53.760Z,4.17
2017-10-12T04:55:56.239Z,5.13
2017-10-12T04:57:59.415Z,4.43
2017-10-12T05:00:01.872Z,5.43
2017-10-12T05:02:04.310Z,3.70
2017-10-12T05:04:06.812Z,3.93
2017-10-12T05:06:09.284Z,4.50
2017-10-12T05:08:11.721Z,3.90
2017-10-12T05:10:14.151Z,4.63
2017-10-12T05:12:16.625Z,4.77
2017-10-12T05:14:19.076Z,3.60
2017-10-12T05:16:21.513Z,5.10
2017-10-12T05:18:24.028Z,4.20
2017-10-12T05:20:26.509Z,4.70
2017-10-12T05:22:28.946Z,4.17
2017-10-12T05:24:31.410Z,4.30
2017-10-12T05:26:33.852Z,6.67
2017-10-12T05:28:36.311Z,4.97
2017-10-12T05:30:38.773Z,4.37
2017-10-12T05:32:41.388Z,4.70
2017-10-12T05:34:43.864Z,5.00
2017-10-12T05:36:46.334Z,5.30
2017-10-12T05:38:48.825Z,4.27
2017-10-12T05:40:51.304Z,4.27
2017-10-12T05:42:53.836Z,4.37
2017-10-12T05:44:57.269Z,3.90
2017-10-12T05:46:59.704Z,4.13
2017-10-12T05:49:02.162Z,3.93
2017-10-12T05:51:04.613Z,5.20
2017-10-12T05:53:07.505Z,4.40
2017-10-12T05:55:10.062Z,3.93
2017-10-12T05:57:12.490Z,4.40
2017-10-12T05:59:14.962Z,4.93
2017-10-12T06:01:17.436Z,5.90
2017-10-12T06:03:19.967Z,4.73
2017-10-12T06:05:22.421Z,3.83
2017-10-12T06:07:24.956Z,5.30
2017-10-12T06:09:27.437Z,4.00
2017-10-12T06:11:29.878Z,4.10
2017-10-12T06:13:32.340Z,4.90
2017-10-12T06:15:34.791Z,4.00
2017-10-12T06:17:37.225Z,4.13
2017-10-12T06:19:39.689Z,4.70
2017-10-12T06:21:42.241Z,4.57
2017-10-12T06:23:44.711Z,4.33
2017-10-12T06:25:47.178Z,5.03
2017-10-12T06:27:49.653Z,4.00
2017-10-12T06:29:52.101Z,8.40
2017-10-12T06:31:54.582Z,3.90
2017-10-12T06:33:57.233Z,6.50
2017-10-12T06:35:59.697Z,4.07
2017-10-12T06:38:02.152Z,4.30
2017-10-12T06:40:04.704Z,4.40
2017-10-12T06:42:07.151Z,5.60
2017-10-12T06:44:09.641Z,4.63
2017-10-12T06:46:12.080Z,4.10
2017-10-12T06:48:14.514Z,4.80
2017-10-12T06:50:17.027Z,4.27
2017-10-12T06:52:19.489Z,4.67
2017-10-12T06:54:21.927Z,7.27
2017-10-12T06:56:24.457Z,6.67
2017-10-12T06:58:26.917Z,5.73
2017-10-12T07:00:29.382Z,5.10
2017-10-12T07:02:31.885Z,8.40
2017-10-12T07:04:34.315Z,6.13
2017-10-12T07:06:36.784Z,4.43
2017-10-12T07:08:39.251Z,3.50
2017-10-12T07:10:41.749Z,3.77
2017-10-12T07:12:44.183Z,7.13
2017-10-12T07:14:46.649Z,10.03
2017-10-12T07:16:49.076Z,7.70
2017-10-12T07:18:51.534Z,3.90
2017-10-12T07:20:54.053Z,4.13
2017-10-12T07:22:56.547Z,4.37
2017-10-12T07:24:59.020Z,3.90
2017-10-12T07:27:01.509Z,4.27
2017-10-12T07:29:04.049Z,5.60
2017-10-12T07:31:06.506Z,5.97
2017-10-12T07:33:08.965Z,3.97
2017-10-12T07:35:11.440Z,4.00
2017-10-12T07:37:13.945Z,3.80
2017-10-12T07:39:16.416Z,3.87
2017-10-12T07:41:18.859Z,4.33
2017-10-12T07:43:22.276Z,6.17
2017-10-12T07:45:24.742Z,4.27
2017-10-12T07:47:27.186Z,6.27
2017-10-12T07:49:29.687Z,4.63
2017-10-12T07:51:32.160Z,3.50
2017-10-12T07:53:34.612Z,8.27
2017-10-12T07:55:37.092Z,5.07
2017-10-12T07:57:39.569Z,12.30
2017-10-12T07:59:42.052Z,3.43
2017-10-12T08:01:44.529Z,4.27
2017-10-12T08:03:47.013Z,5.53
2017-10-12T08:05:49.456Z,3.63
2017-10-12T08:07:51.894Z,9.13
2017-10-12T08:09:54.429Z,8.57
2017-10-12T08:11:56.868Z,5.33
2017-10-12T08:13:59.326Z,8.20
2017-10-12T08:16:01.829Z,11.63
2017-10-12T08:18:04.371Z,7.97
2017-10-12T08:20:06.846Z,5.73
2017-10-12T08:22:09.422Z,4.40
2017-10-12T08:24:11.858Z,5.63
2017-10-12T08:26:14.291Z,5.13
2017-10-12T08:28:16.740Z,5.67
2017-10-12T08:30:19.201Z,5.07
2017-10-12T08:32:21.722Z,5.00
2017-10-12T08:34:24.182Z,5.70
2017-10-12T08:36:26.801Z,6.50
2017-10-12T08:38:29.248Z,4.23
2017-10-12T08:40:31.739Z,4.30
2017-10-12T08:42:34.171Z,8.30
2017-10-12T08:44:36.601Z,4.33
2017-10-12T08:46:39.149Z,4.67
2017-10-12T08:48:42.508Z,5.23
2017-10-12T08:50:44.980Z,4.77
2017-10-12T08:52:47.462Z,4.27
2017-10-12T08:54:49.894Z,4.43
2017-10-12T08:56:52.331Z,3.80
2017-10-12T08:58:55.712Z,3.67
2017-10-12T09:00:58.252Z,3.30
2017-10-12T09:03:00.947Z,7.53
2017-10-12T09:05:03.541Z,4.00
2017-10-12T09:07:05.981Z,9.30
2017-10-12T09:09:08.495Z,8.90
2017-10-12T09:11:10.985Z,11.27
2017-10-12T09:13:13.420Z,8.00
2017-10-12T09:15:15.886Z,7.43
2017-10-12T09:17:18.627Z,8.60
2017-10-12T09:19:21.078Z,5.37
2017-10-12T09:21:23.520Z,6.40
2017-10-12T09:23:26.000Z,5.13
2017-10-12T09:25:28.472Z,6.20
2017-10-12T09:27:30.907Z,4.40
2017-10-12T09:29:33.448Z,10.60
2017-10-12T09:31:35.941Z,5.83
2017-10-12T09:33:38.381Z,5.20
2017-10-12T09:35:41.352Z,4.50
2017-10-12T09:37:43.865Z,5.33
2017-10-12T09:39:46.301Z,9.00
2017-10-12T09:41:48.796Z,4.53
2017-10-12T09:43:52.192Z,9.40
2017-10-12T09:45:55.571Z,10.27
2017-10-12T09:47:58.073Z,7.40
2017-10-12T09:50:00.513Z,20.10
2017-10-12T09:52:03.012Z,4.80
2017-10-12T09:54:05.550Z,5.70
2017-10-12T09:56:08.051Z,7.70
2017-10-12T09:58:10.484Z,8.50
2017-10-12T10:00:12.943Z,5.47
2017-10-12T10:02:15.468Z,7.83
2017-10-12T10:04:17.928Z,5.53
2017-10-12T10:06:20.390Z,6.87
2017-10-12T10:08:22.866Z,5.83
2017-10-12T10:10:25.325Z,4.77
2017-10-12T10:12:27.797Z,6.40
2017-10-12T10:14:30.236Z,5.47
2017-10-12T10:16:32.767Z,7.03
2017-10-12T10:18:35.333Z,6.53
2017-10-12T10:20:37.886Z,5.73
2017-10-12T10:22:40.333Z,3.80
2017-10-12T10:24:42.807Z,7.20
2017-10-12T10:26:45.239Z,7.67
2017-10-12T10:28:47.684Z,10.23
2017-10-12T10:30:50.149Z,6.47
2017-10-12T10:32:52.626Z,5.27
2017-10-12T10:34:55.065Z,12.67
2017-10-12T10:36:57.528Z,6.27
2017-10-12T10:39:00.077Z,6.37
2017-10-12T10:41:02.536Z,8.03
2017-10-12T10:43:04.992Z,6.80
2017-10-12T10:45:07.444Z,8.33
2017-10-12T10:47:09.921Z,6.47
2017-10-12T10:49:12.380Z,10.90
2017-10-12T10:51:14.821Z,10.23
2017-10-12T10:53:17.252Z,7.63
2017-10-12T10:55:19.963Z,6.20
2017-10-12T10:57:22.514Z,7.10
2017-10-12T10:59:24.954Z,6.07
2017-10-12T11:01:27.416Z,5.17
2017-10-12T11:03:29.860Z,6.60
2017-10-12T11:05:32.357Z,6.77
2017-10-12T11:07:34.937Z,4.67
2017-10-12T11:09:37.384Z,7.40
2017-10-12T11:11:39.864Z,10.03
2017-10-12T11:13:42.327Z,5.63
2017-10-12T11:15:44.777Z,7.93
2017-10-12T11:17:47.207Z,8.60
2017-10-12T11:19:49.663Z,5.03
2017-10-12T11:21:52.110Z,5.83
2017-10-12T11:23:54.546Z,5.10
2017-10-12T11:25:57.009Z,8.73
2017-10-12T11:27:59.523Z,7.03
2017-10-12T11:30:01.965Z,7.13
2017-10-12T11:32:04.480Z,11.70
2017-10-12T11:34:06.917Z,10.03
2017-10-12T11:36:09.409Z,14.80
2017-10-12T11:38:11.985Z,10.50
2017-10-12T11:40:14.518Z,9.63
2017-10-12T11:42:17.022Z,6.33
2017-10-12T11:44:19.592Z,16.13
2017-10-12T11:46:22.033Z,11.47
2017-10-12T11:48:25.355Z,6.90
2017-10-12T11:50:27.833Z,13.73
2017-10-12T11:52:29.552Z,9.93
2017-10-12T11:54:32.033Z,5.67
2017-10-12T11:56:34.509Z,11.63
2017-10-12T11:58:37.118Z,6.57
2017-10-12T12:00:39.564Z,8.67
2017-10-12T12:02:42.051Z,9.90
2017-10-12T12:04:44.497Z,9.27
2017-10-12T12:06:46.938Z,13.10
2017-10-12T12:08:49.442Z,9.20
2017-10-12T12:10:51.881Z,9.77
2017-10-12T12:12:54.403Z,6.70
2017-10-12T12:14:56.866Z,6.20
2017-10-12T12:16:59.349Z,7.40
2017-10-12T12:19:01.908Z,8.17
2017-10-12T12:21:04.423Z,13.10
2017-10-12T12:23:06.871Z,19.07
2017-10-12T12:25:09.305Z,5.93
2017-10-12T12:27:11.825Z,18.27
2017-10-12T12:29:14.271Z,10.23
2017-10-12T12:31:16.839Z,17.13
2017-10-12T12:33:19.309Z,8.47
2017-10-12T12:35:21.744Z,10.47
2017-10-12T12:37:24.233Z,9.33
2017-10-12T12:39:26.690Z,9.57
2017-10-12T12:41:29.346Z,5.70
2017-10-12T12:43:31.849Z,9.20
2017-10-12T12:45:34.432Z,13.63
2017-10-12T12:47:36.885Z,11.07
2017-10-12T12:49:39.316Z,6.40
2017-10-12T12:51:41.784Z,8.40
2017-10-12T12:53:44.224Z,9.93
2017-10-12T12:55:46.660Z,5.77
2017-10-12T12:57:49.125Z,9.23
2017-10-12T12:59:51.692Z,6.30
2017-10-12T13:01:55.065Z,10.90
2017-10-12T13:03:57.619Z,17.77
2017-10-12T13:06:00.065Z,12.53
2017-10-12T13:08:02.509Z,7.50
2017-10-12T13:10:05.016Z,5.40
2017-10-12T13:12:07.472Z,12.00
2017-10-12T13:14:09.961Z,9.73
2017-10-12T13:16:12.418Z,9.30
2017-10-12T13:18:14.882Z,12.07
2017-10-12T13:20:17.334Z,11.80
2017-10-12T13:22:19.797Z,8.77
2017-10-12T13:24:22.275Z,8.73
2017-10-12T13:26:24.721Z,9.50
2017-10-12T13:28:27.202Z,6.47
2017-10-12T13:30:29.682Z,9.57
2017-10-12T13:32:32.171Z,7.60
2017-10-12T13:34:34.727Z,15.30
2017-10-12T13:36:37.162Z,8.23
2017-10-12T13:38:39.656Z,7.50
2017-10-12T13:40:42.141Z,9.40
2017-10-12T13:42:44.708Z,9.87
2017-10-12T13:44:47.162Z,7.50
2017-10-12T13:46:49.625Z,8.57
2017-10-12T13:48:52.115Z,7.33
2017-10-12T13:50:54.605Z,9.57
2017-10-12T13:52:57.160Z,9.30
2017-10-12T13:54:59.632Z,7.73
2017-10-12T13:57:02.091Z,12.30
2017-10-12T13:59:04.564Z,9.57
2017-10-12T14:01:07.045Z,7.83
2017-10-12T14:03:09.489Z,12.23
2017-10-12T14:05:11.967Z,8.27
2017-10-12T14:07:14.444Z,11.00
2017-10-12T14:09:16.896Z,9.87
2017-10-12T14:11:19.357Z,6.70
2017-10-12T14:13:21.819Z,4.00
2017-10-12T14:15:24.326Z,9.90
2017-10-12T14:17:26.800Z,6.20
2017-10-12T14:19:29.270Z,7.60
2017-10-12T14:21:31.705Z,8.13
2017-10-12T14:23:34.169Z,8.43
2017-10-12T14:25:36.645Z,6.30
2017-10-12T14:27:39.080Z,9.90
2017-10-12T14:29:42.453Z,7.60
2017-10-12T14:31:44.917Z,4.83
2017-10-12T14:33:47.381Z,6.70
2017-10-12T14:35:49.857Z,13.43
2017-10-12T14:37:52.344Z,5.63
2017-10-12T14:39:54.797Z,5.13
2017-10-12T14:41:57.262Z,8.50
2017-10-12T14:43:59.898Z,8.97
2017-10-12T14:46:02.345Z,6.40
2017-10-12T14:48:04.813Z,4.50
2017-10-12T14:50:07.261Z,10.80
2017-10-12T14:52:09.692Z,8.80
2017-10-12T14:54:12.191Z,7.47
2017-10-12T14:56:14.717Z,10.70
2017-10-12T14:58:17.168Z,5.83
2017-10-12T15:00:19.647Z,7.40
2017-10-12T15:02:22.088Z,6.30
2017-10-12T15:04:24.536Z,5.70
2017-10-12T15:06:27.010Z,11.87
2017-10-12T15:08:29.445Z,4.77
2017-10-12T15:10:31.889Z,10.20
2017-10-12T15:12:34.365Z,14.67
2017-10-12T15:14:37.796Z,6.30
2017-10-12T15:16:40.308Z,5.83
2017-10-12T15:18:42.770Z,5.73
2017-10-12T15:20:45.236Z,5.57
2017-10-12T15:22:47.669Z,11.10
2017-10-12T15:24:50.156Z,8.03
2017-10-12T15:26:52.605Z,5.17
2017-10-12T15:28:55.099Z,6.70
2017-10-12T15:30:57.570Z,4.20
2017-10-12T15:33:00.102Z,7.70
2017-10-12T15:35:02.570Z,9.67
2017-10-12T15:37:05.094Z,15.20
2017-10-12T15:39:07.553Z,11.10
2017-10-12T15:41:09.996Z,17.77
2017-10-12T15:43:13.412Z,14.63
2017-10-12T15:45:15.932Z,10.77
2017-10-12T15:47:18.436Z,17.07
2017-10-12T15:49:20.903Z,12.60
2017-10-12T15:51:23.357Z,15.77
2017-10-12T15:53:25.844Z,17.20
2017-10-12T15:55:28.316Z,17.80
2017-10-12T15:57:30.812Z,17.73
2017-10-12T15:59:33.648Z,17.00
2017-10-12T16:01:36.270Z,15.90
2017-10-12T16:03:38.715Z,13.43
2017-10-12T16:05:41.204Z,24.27
2017-10-12T16:07:43.697Z,15.33
2017-10-12T16:09:46.133Z,16.70
2017-10-12T16:11:48.684Z,19.17
2017-10-12T16:13:51.172Z,15.57
2017-10-12T16:15:53.641Z,22.07
2017-10-12T16:17:56.092Z,15.57
2017-10-12T16:19:58.565Z,22.03
2017-10-12T16:22:01.007Z,18.43
2017-10-12T16:24:03.458Z,19.53
2017-10-12T16:26:05.936Z,19.97
2017-10-12T16:28:08.545Z,16.43
2017-10-12T16:30:11.009Z,14.57
2017-10-12T16:32:13.510Z,16.53
2017-10-12T16:34:15.962Z,16.23
2017-10-12T16:36:18.420Z,16.40
2017-10-12T16:38:21.011Z,16.27
2017-10-12T16:40:23.514Z,16.83
2017-10-12T16:42:25.960Z,24.13
2017-10-12T16:44:28.466Z,13.67
2017-10-12T16:46:31.089Z,20.27
2017-10-12T16:48:33.549Z,13.23
2017-10-12T16:52:38.494Z,16.50
2017-10-12T16:54:40.948Z,16.50
2017-10-12T16:56:43.429Z,11.00
2017-10-12T16:58:45.875Z,12.60
2017-10-12T17:00:48.320Z,20.53
2017-10-12T17:02:50.816Z,16.33
2017-10-12T17:04:53.316Z,16.43
2017-10-12T17:06:55.805Z,10.80
2017-10-12T17:08:58.276Z,15.20
2017-10-12T17:11:00.719Z,9.53
2017-10-12T17:13:04.128Z,6.77
2017-10-12T17:15:06.614Z,13.90
2017-10-12T17:17:09.107Z,17.63
2017-10-12T17:19:11.553Z,11.97
2017-10-12T17:21:14.021Z,13.43
2017-10-12T17:23:16.567Z,8.77
2017-10-12T17:25:19.001Z,7.80
2017-10-12T17:27:21.504Z,10.73
2017-10-12T17:29:23.953Z,11.63
2017-10-12T17:31:26.504Z,12.73
2017-10-12T17:33:28.976Z,7.00
2017-10-12T17:35:31.435Z,7.90
2017-10-12T17:37:33.888Z,10.20
2017-10-12T17:39:36.382Z,8.10
2017-10-12T17:41:38.833Z,13.07
2017-10-12T17:43:41.270Z,6.10
2017-10-12T17:45:43.736Z,10.60
2017-10-12T17:47:46.365Z,8.93
2017-10-12T17:49:48.815Z,8.40
2017-10-12T17:51:51.387Z,11.07
2017-10-12T17:53:53.827Z,11.37
2017-10-12T17:55:56.281Z,10.00
2017-10-12T17:57:58.766Z,13.57
2017-10-12T18:00:01.201Z,9.93
2017-10-12T18:02:03.667Z,11.47
2017-10-12T18:04:06.133Z,5.80
2017-10-12T18:06:08.568Z,8.60
2017-10-12T18:08:11.026Z,8.83
2017-10-12T18:10:13.538Z,13.30
2017-10-12T18:12:22.934Z,11.67
2017-10-12T18:14:18.509Z,10.00
2017-10-12T18:16:21.040Z,7.10
2017-10-12T18:18:23.512Z,9.20
2017-10-12T18:20:25.965Z,8.30
2017-10-12T18:22:28.422Z,8.37
2017-10-12T18:26:33.396Z,9.20
2017-10-12T18:28:35.874Z,6.50
2017-10-12T18:30:38.303Z,9.10
2017-10-12T18:32:40.742Z,7.70
2017-10-12T18:34:43.214Z,5.63
2017-10-12T18:36:45.737Z,6.20
2017-10-12T18:38:48.172Z,8.37
2017-10-12T18:40:51.046Z,8.63
2017-10-12T18:42:55.703Z,5.00
2017-10-12T18:44:58.209Z,6.40
2017-10-12T18:47:00.679Z,7.13
2017-10-12T18:49:03.793Z,7.37
2017-10-12T18:51:06.264Z,8.33
2017-10-12T18:53:08.737Z,7.13
2017-10-12T18:55:11.256Z,8.53
2017-10-12T18:57:13.690Z,6.20
2017-10-12T18:59:16.155Z,9.47
2017-10-12T19:01:18.663Z,8.47
2017-10-12T19:03:21.109Z,5.20
2017-10-12T19:05:24.772Z,6.30
2017-10-12T19:07:28.576Z,4.83
2017-10-12T19:09:32.030Z,8.57
2017-10-12T19:11:36.041Z,4.60
2017-10-12T19:13:39.067Z,7.53
2017-10-12T19:15:42.465Z,6.63
2017-10-12T19:17:46.230Z,6.43
2017-10-12T19:19:50.230Z,3.97
2017-10-12T19:21:54.575Z,6.87
2017-10-12T19:23:57.871Z,6.87
2017-10-12T19:26:00.853Z,10.87
2017-10-12T19:30:08.798Z,7.10
2017-10-12T19:32:11.397Z,6.23
2017-10-12T19:34:13.957Z,8.63
2017-10-12T19:36:16.425Z,8.23
2017-10-12T19:38:18.925Z,10.10
2017-10-12T19:40:21.373Z,11.43
2017-10-12T19:42:23.878Z,7.60
2017-10-12T19:44:26.317Z,3.77
2017-10-12T19:46:28.751Z,4.50
2017-10-12T19:48:31.232Z,3.13
2017-10-12T19:50:33.881Z,4.80
2017-10-12T19:52:36.323Z,6.33
2017-10-12T19:54:38.796Z,17.83
2017-10-12T19:56:41.244Z,6.47
2017-10-12T20:00:46.211Z,6.40
2017-10-12T20:02:48.648Z,3.97
2017-10-12T20:04:51.081Z,4.20
2017-10-12T20:06:53.609Z,4.80
2017-10-12T20:08:56.051Z,6.30
2017-10-12T20:10:58.483Z,6.60
2017-10-12T20:13:00.953Z,8.90
2017-10-12T20:15:03.384Z,5.70
2017-10-12T20:17:05.836Z,6.10
2017-10-12T20:19:08.309Z,6.67
2017-10-12T20:21:10.750Z,5.17
2017-10-12T20:23:13.224Z,3.33
2017-10-12T20:25:15.725Z,3.70
2017-10-12T20:27:18.161Z,5.33
2017-10-12T20:29:35.576Z,6.30
2017-10-12T20:31:23.112Z,5.80
2017-10-12T20:33:25.550Z,5.30
2017-10-12T20:35:27.989Z,4.00
2017-10-12T20:37:30.465Z,7.33
2017-10-12T20:39:32.910Z,4.03
2017-10-12T20:41:35.406Z,5.30
2017-10-12T20:43:37.884Z,6.33
2017-10-12T20:45:40.332Z,4.83
2017-10-12T20:47:42.793Z,9.33
2017-10-12T20:49:45.278Z,5.70
2017-10-12T20:51:47.888Z,4.83
2017-10-12T20:53:50.326Z,7.70
2017-10-12T20:55:52.790Z,9.60
2017-10-12T20:57:55.334Z,10.60
2017-10-12T20:59:57.833Z,6.17
2017-10-12T21:02:00.300Z,7.63
2017-10-12T21:04:02.740Z,4.07
2017-10-12T21:06:05.174Z,4.90
2017-10-12T21:08:07.648Z,5.07
2017-10-12T21:10:10.096Z,6.27
2017-10-12T21:12:12.535Z,4.07
2017-10-12T21:14:15.002Z,5.97
2017-10-12T21:16:17.435Z,4.07
2017-10-12T21:18:19.872Z,3.90
2017-10-12T21:20:22.400Z,4.27
2017-10-12T21:22:24.835Z,6.30
2017-10-12T21:24:27.361Z,7.30
2017-10-12T21:26:29.926Z,5.43
2017-10-12T21:28:32.401Z,4.60
2017-10-12T21:30:34.857Z,6.67
2017-10-12T21:32:37.352Z,4.00
2017-10-12T21:34:39.779Z,7.27
2017-10-12T21:36:42.220Z,4.60
2017-10-12T21:38:44.688Z,6.23
2017-10-12T21:40:47.128Z,5.17
2017-10-12T21:42:49.673Z,3.10
2017-10-12T21:44:52.139Z,5.63
2017-10-12T21:46:54.575Z,3.97
2017-10-12T21:48:57.034Z,10.07
2017-10-12T21:50:59.578Z,5.97
2017-10-12T21:53:02.089Z,8.30
2017-10-12T21:55:04.529Z,4.90
2017-10-12T21:59:15.837Z,3.43
2017-10-12T22:01:18.285Z,3.13
2017-10-12T22:03:20.990Z,4.83
2017-10-12T22:05:23.439Z,5.30
2017-10-12T22:07:26.032Z,4.43
2017-10-12T22:09:28.604Z,6.17
2017-10-12T22:11:31.039Z,6.20
2017-10-12T22:13:33.483Z,3.53
2017-10-12T22:15:35.948Z,6.07
2017-10-12T22:17:38.390Z,4.50
2017-10-12T22:19:40.892Z,4.77
2017-10-12T22:21:43.348Z,3.20
2017-10-12T22:23:45.787Z,4.03
2017-10-12T22:25:48.225Z,8.43
2017-10-12T22:27:50.773Z,3.10
2017-10-12T22:29:53.204Z,6.83
2017-10-12T22:31:55.717Z,5.43
2017-10-12T22:33:58.276Z,3.40
2017-10-12T22:36:00.745Z,6.00
2017-10-12T22:38:03.196Z,4.13
2017-10-12T22:40:05.702Z,3.40
2017-10-12T22:42:08.176Z,3.90
2017-10-12T22:44:10.652Z,5.30
2017-10-12T22:46:13.213Z,3.97
2017-10-12T22:48:15.651Z,4.37
2017-10-12T22:50:18.092Z,5.90
2017-10-12T22:52:20.597Z,3.30
2017-10-12T22:54:23.150Z,4.40
2017-10-12T22:56:25.600Z,2.90
2017-10-12T22:58:28.065Z,7.20
2017-10-12T23:00:30.501Z,2.90
2017-10-12T23:02:32.973Z,3.10
2017-10-12T23:04:35.436Z,4.63
2017-10-12T23:06:37.914Z,1.90
2017-10-12T23:08:40.364Z,3.33
2017-10-12T23:10:42.837Z,2.77
2017-10-12T23:12:45.282Z,2.63
2017-10-12T23:14:47.712Z,2.03
2017-10-12T23:16:50.199Z,3.73
2017-10-12T23:18:52.641Z,3.53
2017-10-12T23:20:55.129Z,4.93
2017-10-12T23:22:57.600Z,3.37
2017-10-12T23:25:00.040Z,3.17
2017-10-12T23:27:02.477Z,5.13
2017-10-12T23:29:04.960Z,4.33
2017-10-12T23:31:07.423Z,3.50
2017-10-12T23:33:09.856Z,3.83
2017-10-12T23:35:12.404Z,3.00
2017-10-12T23:37:14.838Z,4.53
2017-10-12T23:39:17.278Z,3.73
2017-10-12T23:41:19.748Z,3.13
2017-10-12T23:43:22.185Z,5.63
2017-10-12T23:45:24.632Z,3.80
2017-10-12T23:47:27.120Z,3.30
2017-10-12T23:49:29.563Z,3.40
2017-10-12T23:51:31.997Z,5.60
2017-10-12T23:53:34.459Z,3.30
2017-10-12T23:55:36.891Z,4.40
2017-10-12T23:57:39.327Z,2.57
2017-10-12T23:59:41.786Z,3.87
